createdAt,value
2023-04-13T00:00:12.225Z,99332.59
2023-04-13T00:02:41.215Z,99333.14
2023-04-13T00:05:09.678Z,99340.45
2023-04-13T00:07:40.178Z,99341.26
2023-04-13T00:10:10.174Z,99340.48
2023-04-13T00:12:38.149Z,99341.61
2023-04-13T00:15:05.686Z,99340.75
2023-04-13T00:17:37.352Z,99333.02
2023-04-13T00:20:10.628Z,99330.79
2023-04-13T00:22:37.825Z,99338.90
2023-04-13T00:25:10.043Z,99335.79
2023-04-13T00:27:40.463Z,99332.32
2023-04-13T00:30:09.420Z,99331.67
2023-04-13T00:32:51.760Z,99338.38
2023-04-13T00:35:24.239Z,99338.27
2023-04-13T00:37:51.929Z,99330.58
2023-04-13T00:40:19.615Z,99325.66
2023-04-13T00:42:49.260Z,99322.80
2023-04-13T00:45:20.256Z,99323.54
2023-04-13T00:47:50.062Z,99319.30
2023-04-13T00:50:20.259Z,99320.83
2023-04-13T00:52:48.229Z,99326.08
2023-04-13T00:55:20.247Z,99320.27
2023-04-13T00:57:51.951Z,99317.35
2023-04-13T01:00:20.534Z,99315.95
2023-04-13T01:03:02.046Z,99316.19
2023-04-13T01:05:37.014Z,99324.04
2023-04-13T01:08:14.345Z,99322.66
2023-04-13T01:10:55.076Z,99322.95
2023-04-13T01:13:42.016Z,99335.48
2023-04-13T01:16:19.384Z,99326.80
2023-04-13T01:18:50.055Z,99319.77
2023-04-13T01:21:21.041Z,99317.09
2023-04-13T01:23:48.606Z,99325.67
2023-04-13T01:26:16.684Z,99323.05
2023-04-13T01:28:47.592Z,99315.77
2023-04-13T01:31:16.662Z,99313.97
2023-04-13T01:33:43.438Z,99316.05
2023-04-13T01:36:10.846Z,99312.83
2023-04-13T01:38:39.462Z,99309.02
2023-04-13T01:41:08.998Z,99306.87
2023-04-13T01:43:38.452Z,99306.77
2023-04-13T01:46:13.223Z,99309.36
2023-04-13T01:48:49.930Z,99322.63
2023-04-13T01:51:44.733Z,99327.52
2023-04-13T01:54:17.057Z,99319.52
2023-04-13T01:56:46.097Z,99319.49
2023-04-13T01:59:13.287Z,99319.64
2023-04-13T02:01:40.522Z,99317.18
2023-04-13T02:04:15.210Z,99324.02
2023-04-13T02:06:46.356Z,99337.65
2023-04-13T02:09:13.913Z,99344.91
2023-04-13T02:11:41.452Z,99346.95
2023-04-13T02:14:18.145Z,99340.70
2023-04-13T02:16:45.337Z,99333.06
2023-04-13T02:19:14.192Z,99329.61
2023-04-13T02:21:41.588Z,99331.58
2023-04-13T02:24:08.631Z,99338.59
2023-04-13T02:26:37.088Z,99334.23
2023-04-13T02:29:05.112Z,99333.16
2023-04-13T02:31:51.937Z,99333.95
2023-04-13T02:34:18.805Z,99333.33
2023-04-13T02:36:45.841Z,99333.51
2023-04-13T02:39:15.945Z,99333.05
2023-04-13T02:41:43.920Z,99332.01
2023-04-13T02:44:17.256Z,99335.21
2023-04-13T02:46:49.574Z,99340.83
2023-04-13T02:49:17.994Z,99331.13
2023-04-13T02:51:55.580Z,99324.71
2023-04-13T02:54:31.046Z,99324.16
2023-04-13T02:56:58.717Z,99325.69
2023-04-13T02:59:27.892Z,99325.52
2023-04-13T03:01:58.047Z,99326.25
2023-04-13T03:04:27.138Z,99328.77
2023-04-13T03:06:54.380Z,99337.61
2023-04-13T03:09:23.264Z,99337.48
2023-04-13T03:11:58.170Z,99334.23
2023-04-13T03:14:29.319Z,99334.15
2023-04-13T03:17:01.199Z,99337.61
2023-04-13T03:19:37.385Z,99332.63
2023-04-13T03:22:04.680Z,99331.92
2023-04-13T03:24:34.612Z,99343.30
2023-04-13T03:27:04.988Z,99349.67
2023-04-13T03:29:36.596Z,99348.98
2023-04-13T03:32:04.865Z,99345.77
2023-04-13T03:34:33.300Z,99346.62
2023-04-13T03:37:02.257Z,99346.84
2023-04-13T03:39:32.254Z,99352.56
2023-04-13T03:41:59.079Z,99360.55
2023-04-13T03:44:26.656Z,99358.75
2023-04-13T03:46:53.778Z,99358.13
2023-04-13T03:49:24.778Z,99359.19
2023-04-13T03:51:56.833Z,99361.89
2023-04-13T03:54:25.269Z,99367.03
2023-04-13T03:56:53.137Z,99369.26
2023-04-13T03:59:20.057Z,99368.18
2023-04-13T04:01:47.485Z,99366.81
2023-04-13T04:04:15.694Z,99366.33
2023-04-13T04:06:45.381Z,99367.98
2023-04-13T04:09:13.974Z,99366.56
2023-04-13T04:11:44.597Z,99368.33
2023-04-13T04:14:12.480Z,99374.76
2023-04-13T04:16:47.512Z,99374.52
2023-04-13T04:19:15.871Z,99381.75
2023-04-13T04:21:44.231Z,99380.80
2023-04-13T04:24:21.920Z,99381.36
2023-04-13T04:26:54.392Z,99380.60
2023-04-13T04:29:21.707Z,99384.02
2023-04-13T04:31:52.738Z,99382.60
2023-04-13T04:34:22.522Z,99384.19
2023-04-13T04:36:50.536Z,99387.56
2023-04-13T04:39:21.690Z,99387.36
2023-04-13T04:42:02.354Z,99390.10
2023-04-13T04:44:32.202Z,99391.40
2023-04-13T04:47:03.552Z,99388.80
2023-04-13T04:49:31.664Z,99382.23
2023-04-13T04:51:58.805Z,99374.33
2023-04-13T04:54:26.018Z,99370.70
2023-04-13T04:56:52.974Z,99366.67
2023-04-13T04:59:21.040Z,99368.21
2023-04-13T05:01:56.814Z,99379.15
2023-04-13T05:04:23.878Z,99385.85
2023-04-13T05:06:52.492Z,99385.41
2023-04-13T05:09:22.758Z,99383.64
2023-04-13T05:11:53.967Z,99389.61
2023-04-13T05:14:21.137Z,99388.85
2023-04-13T05:16:51.457Z,99384.66
2023-04-13T05:19:29.084Z,99381.43
2023-04-13T05:22:02.259Z,99381.71
2023-04-13T05:24:35.522Z,99377.83
2023-04-13T05:27:03.415Z,99379.49
2023-04-13T05:29:32.918Z,99378.05
2023-04-13T05:32:00.073Z,99379.67
2023-04-13T05:34:28.204Z,99384.32
2023-04-13T05:37:32.136Z,99384.36
2023-04-13T05:39:59.708Z,99387.08
2023-04-13T05:42:32.459Z,99387.13
2023-04-13T05:45:00.159Z,99390.65
2023-04-13T05:47:28.319Z,99389.38
2023-04-13T05:49:58.168Z,99393.10
2023-04-13T05:52:26.560Z,99387.52
2023-04-13T05:54:54.154Z,99384.33
2023-04-13T05:57:22.503Z,99385.40
2023-04-13T05:59:51.459Z,99389.44
2023-04-13T06:02:21.984Z,99388.05
2023-04-13T06:04:52.942Z,99390.82
2023-04-13T06:07:21.200Z,99387.96
2023-04-13T06:09:49.016Z,99388.98
2023-04-13T06:12:21.016Z,99388.62
2023-04-13T06:14:49.117Z,99385.02
2023-04-13T06:17:16.160Z,99387.38
2023-04-13T06:19:43.867Z,99390.94
2023-04-13T06:22:10.908Z,99395.50
2023-04-13T06:24:39.214Z,99401.31
2023-04-13T06:27:07.357Z,99404.01
2023-04-13T06:29:36.017Z,99408.14
2023-04-13T06:32:07.225Z,99407.73
2023-04-13T06:34:35.169Z,99413.84
2023-04-13T06:37:02.668Z,99419.73
2023-04-13T06:39:33.017Z,99420.27
2023-04-13T06:42:00.858Z,99424.61
2023-04-13T06:44:54.334Z,99425.95
2023-04-13T06:47:21.446Z,99427.59
2023-04-13T06:49:51.516Z,99424.10
2023-04-13T06:52:18.422Z,99420.48
2023-04-13T06:54:45.353Z,99419.87
2023-04-13T06:57:33.427Z,99422.23
2023-04-13T07:00:00.463Z,99418.64
2023-04-13T07:02:31.124Z,99418.70
2023-04-13T07:05:01.230Z,99417.73
2023-04-13T07:07:30.184Z,99417.75
2023-04-13T07:09:58.856Z,99420.42
2023-04-13T07:12:34.473Z,99425.17
2023-04-13T07:15:02.304Z,99427.55
2023-04-13T07:17:32.315Z,99426.77
2023-04-13T07:20:03.648Z,99425.55
2023-04-13T07:22:33.087Z,99425.67
2023-04-13T07:25:00.814Z,99426.89
2023-04-13T07:27:28.279Z,99422.77
2023-04-13T07:29:56.156Z,99424.00
2023-04-13T07:32:30.921Z,99419.48
2023-04-13T07:35:00.874Z,99422.34
2023-04-13T07:37:31.560Z,99418.60
2023-04-13T07:39:59.794Z,99422.04
2023-04-13T07:42:28.391Z,99425.48
2023-04-13T07:44:59.137Z,99430.44
2023-04-13T07:47:26.972Z,99436.02
2023-04-13T07:49:57.018Z,99438.27
2023-04-13T07:52:24.216Z,99439.85
2023-04-13T07:54:52.507Z,99437.95
2023-04-13T07:57:20.955Z,99443.55
2023-04-13T07:59:51.248Z,99449.16
2023-04-13T08:02:19.990Z,99453.39
2023-04-13T08:04:47.248Z,99455.28
2023-04-13T08:07:18.215Z,99454.33
2023-04-13T08:09:47.950Z,99459.61
2023-04-13T08:12:16.118Z,99462.21
2023-04-13T08:14:47.747Z,99457.89
2023-04-13T08:17:18.065Z,99454.30
2023-04-13T08:19:45.841Z,99451.64
2023-04-13T08:22:15.479Z,99451.89
2023-04-13T08:24:45.647Z,99454.44
2023-04-13T08:27:12.683Z,99452.92
2023-04-13T08:29:39.502Z,99459.95
2023-04-13T08:32:06.875Z,99458.89
2023-04-13T08:34:34.535Z,99460.92
2023-04-13T08:37:01.906Z,99464.64
2023-04-13T08:39:41.045Z,99463.58
2023-04-13T08:42:09.283Z,99465.77
2023-04-13T08:44:40.056Z,99464.96
2023-04-13T08:47:16.600Z,99464.68
2023-04-13T08:49:44.264Z,99465.44
2023-04-13T08:52:17.003Z,99462.70
2023-04-13T08:54:48.736Z,99457.20
2023-04-13T08:57:20.593Z,99457.55
2023-04-13T08:59:51.789Z,99455.64
2023-04-13T09:02:25.807Z,99456.43
2023-04-13T09:04:59.241Z,99459.42
2023-04-13T09:07:31.829Z,99463.46
2023-04-13T09:10:03.581Z,99465.00
2023-04-13T09:12:33.635Z,99463.11
2023-04-13T09:15:02.644Z,99459.68
2023-04-13T09:17:31.859Z,99461.34
2023-04-13T09:20:23.781Z,99460.10
2023-04-13T09:22:52.648Z,99461.71
2023-04-13T09:25:23.799Z,99460.33
2023-04-13T09:27:51.675Z,99461.30
2023-04-13T09:30:21.070Z,99463.52
2023-04-13T09:33:11.080Z,99467.41
2023-04-13T09:35:41.764Z,99470.77
2023-04-13T09:38:11.228Z,99472.86
2023-04-13T09:40:47.682Z,99469.89
2023-04-13T09:43:15.021Z,99464.48
2023-04-13T09:45:43.879Z,99471.61
2023-04-13T09:48:21.274Z,99474.06
2023-04-13T09:51:01.542Z,99476.70
2023-04-13T09:53:39.954Z,99480.62
2023-04-13T09:56:07.146Z,99490.05
2023-04-13T09:58:40.525Z,99485.56
2023-04-13T10:01:09.717Z,99482.30
2023-04-13T10:03:37.461Z,99483.27
2023-04-13T10:06:07.215Z,99483.23
2023-04-13T10:08:39.060Z,99481.27
2023-04-13T10:11:10.991Z,99486.30
2023-04-13T10:13:51.089Z,99484.64
2023-04-13T10:16:21.201Z,99485.77
2023-04-13T10:19:07.682Z,99483.53
2023-04-13T10:21:39.403Z,99488.15
2023-04-13T10:24:11.721Z,99494.89
2023-04-13T10:26:41.163Z,99495.23
2023-04-13T10:29:09.587Z,99497.09
2023-04-13T10:31:39.582Z,99500.86
2023-04-13T10:34:10.136Z,99497.66
2023-04-13T10:36:38.588Z,99500.10
2023-04-13T10:39:05.622Z,99505.45
2023-04-13T10:41:32.757Z,99505.42
2023-04-13T10:44:01.811Z,99504.38
2023-04-13T10:46:29.096Z,99501.73
2023-04-13T10:48:59.833Z,99502.77
2023-04-13T10:51:43.630Z,99506.57
2023-04-13T10:54:12.486Z,99512.58
2023-04-13T10:56:39.750Z,99513.66
2023-04-13T10:59:07.541Z,99517.45
2023-04-13T11:01:35.255Z,99520.49
2023-04-13T11:04:06.073Z,99521.36
2023-04-13T11:06:38.460Z,99519.27
2023-04-13T11:09:06.200Z,99522.01
2023-04-13T11:11:35.108Z,99529.80
2023-04-13T11:14:04.443Z,99534.16
2023-04-13T11:16:43.678Z,99534.80
2023-04-13T11:19:11.310Z,99534.81
2023-04-13T11:21:38.204Z,99539.71
2023-04-13T11:24:05.300Z,99537.70
2023-04-13T11:26:38.206Z,99537.29
2023-04-13T11:29:16.963Z,99534.80
2023-04-13T11:31:46.171Z,99537.45
2023-04-13T11:34:13.442Z,99538.37
2023-04-13T11:36:40.458Z,99541.89
2023-04-13T11:39:10.142Z,99540.27
2023-04-13T11:41:43.885Z,99540.41
2023-04-13T11:44:11.848Z,99541.25
2023-04-13T11:46:38.943Z,99539.49
2023-04-13T11:49:05.956Z,99542.97
2023-04-13T11:51:33.439Z,99541.27
2023-04-13T11:54:00.575Z,99540.00
2023-04-13T11:56:27.402Z,99540.09
2023-04-13T11:58:54.356Z,99546.93
2023-04-13T12:01:26.100Z,99547.10
2023-04-13T12:04:12.851Z,99553.14
2023-04-13T12:06:44.964Z,99556.47
2023-04-13T12:09:17.310Z,99559.09
2023-04-13T12:12:15.941Z,99557.98
2023-04-13T12:14:54.845Z,99563.45
2023-04-13T12:20:03.997Z,99567.36
2023-04-13T12:22:50.817Z,99568.49
2023-04-13T12:25:24.250Z,99569.47
2023-04-13T12:27:52.190Z,99570.34
2023-04-13T12:30:20.668Z,99567.24
2023-04-13T12:32:53.515Z,99568.29
2023-04-13T12:35:21.004Z,99573.02
2023-04-13T12:37:48.631Z,99574.17
2023-04-13T12:40:16.343Z,99570.80
2023-04-13T12:42:48.076Z,99566.21
2023-04-13T12:45:16.062Z,99566.14
2023-04-13T12:47:43.100Z,99569.98
2023-04-13T12:50:11.028Z,99571.61
2023-04-13T12:52:41.804Z,99570.11
2023-04-13T12:55:09.361Z,99566.52
2023-04-13T12:57:41.202Z,99568.84
2023-04-13T13:00:10.625Z,99565.85
2023-04-13T13:02:39.385Z,99565.28
2023-04-13T13:05:08.713Z,99565.58
2023-04-13T13:07:35.578Z,99563.44
2023-04-13T13:10:25.880Z,99565.13
2023-04-13T13:12:59.997Z,99564.37
2023-04-13T13:15:27.134Z,99565.64
2023-04-13T13:17:54.979Z,99569.26
2023-04-13T13:20:21.977Z,99569.47
2023-04-13T13:22:49.058Z,99569.86
2023-04-13T13:25:16.527Z,99570.92
2023-04-13T13:30:13.893Z,99568.11
2023-04-13T13:32:42.732Z,99571.05
2023-04-13T13:35:10.218Z,99570.98
2023-04-13T13:37:39.174Z,99566.30
2023-04-13T13:40:12.351Z,99570.58
2023-04-13T13:42:50.178Z,99570.21
2023-04-13T13:45:17.938Z,99572.17
2023-04-13T13:47:49.557Z,99571.92
2023-04-13T13:50:16.651Z,99574.43
2023-04-13T13:53:01.690Z,99572.70
2023-04-13T13:55:31.755Z,99574.30
2023-04-13T13:57:59.559Z,99572.73
2023-04-13T14:00:26.453Z,99576.16
2023-04-13T14:02:53.744Z,99578.47
2023-04-13T14:05:21.636Z,99577.63
2023-04-13T14:07:49.252Z,99576.33
2023-04-13T14:10:16.846Z,99576.75
2023-04-13T14:12:47.405Z,99572.45
2023-04-13T14:15:21.200Z,99576.14
2023-04-13T14:17:55.827Z,99574.52
2023-04-13T14:20:34.224Z,99577.60
2023-04-13T14:23:01.162Z,99577.05
2023-04-13T14:25:28.749Z,99583.06
2023-04-13T14:27:56.514Z,99580.59
2023-04-13T14:30:24.966Z,99582.36
2023-04-13T14:32:54.204Z,99586.02
2023-04-13T14:35:21.678Z,99585.53
2023-04-13T14:37:48.785Z,99587.39
2023-04-13T14:40:21.241Z,99593.87
2023-04-13T14:42:53.276Z,99593.13
2023-04-13T14:45:20.480Z,99596.23
2023-04-13T14:47:47.549Z,99594.77
2023-04-13T14:50:15.644Z,99599.53
2023-04-13T14:52:44.310Z,99597.20
2023-04-13T14:55:12.681Z,99597.94
2023-04-13T14:57:41.026Z,99599.90
2023-04-13T15:00:22.047Z,99598.47
2023-04-13T15:03:10.653Z,99598.05
2023-04-13T15:05:39.590Z,99600.91
2023-04-13T15:08:07.655Z,99601.40
2023-04-13T15:10:34.847Z,99600.89
2023-04-13T15:13:07.782Z,99604.89
2023-04-13T15:15:36.160Z,99605.84
2023-04-13T15:18:03.734Z,99600.25
2023-04-13T15:20:34.948Z,99605.87
2023-04-13T15:23:02.881Z,99604.83
2023-04-13T15:25:30.356Z,99605.40
2023-04-13T15:27:58.675Z,99612.27
2023-04-13T15:30:28.009Z,99610.71
2023-04-13T15:32:57.873Z,99611.50
2023-04-13T15:35:27.006Z,99616.98
2023-04-13T15:37:54.564Z,99623.45
2023-04-13T15:40:24.456Z,99625.84
2023-04-13T15:42:51.517Z,99627.33
2023-04-13T15:45:20.254Z,99629.39
2023-04-13T15:47:47.282Z,99632.18
2023-04-13T15:50:14.740Z,99634.42
2023-04-13T15:52:41.912Z,99636.71
2023-04-13T15:55:09.430Z,99640.96
2023-04-13T15:57:36.576Z,99642.92
2023-04-13T16:00:06.652Z,99644.10
2023-04-13T16:02:35.111Z,99646.34
2023-04-13T16:05:03.244Z,99649.95
2023-04-13T16:07:30.445Z,99654.33
2023-04-13T16:09:57.841Z,99653.44
2023-04-13T16:12:31.273Z,99654.41
2023-04-13T16:14:58.979Z,99657.55
2023-04-13T16:17:31.568Z,99660.77
2023-04-13T16:20:12.770Z,99660.50
2023-04-13T16:22:41.509Z,99664.67
2023-04-13T16:25:15.003Z,99662.21
2023-04-13T16:27:42.880Z,99667.02
2023-04-13T16:30:12.344Z,99664.30
2023-04-13T16:32:45.848Z,99667.69
2023-04-13T16:35:12.873Z,99670.73
2023-04-13T16:37:41.775Z,99667.57
2023-04-13T16:40:12.728Z,99669.86
2023-04-13T16:42:41.123Z,99670.27
2023-04-13T16:45:10.287Z,99669.61
2023-04-13T16:47:41.380Z,99672.83
2023-04-13T16:50:10.234Z,99674.30
2023-04-13T16:52:38.329Z,99670.52
2023-04-13T16:55:06.014Z,99676.89
2023-04-13T16:57:33.207Z,99679.63
2023-04-13T17:00:10.228Z,99684.46
2023-04-13T17:02:39.932Z,99686.29
2023-04-13T17:05:08.394Z,99688.27
2023-04-13T17:07:38.021Z,99695.11
2023-04-13T17:10:20.935Z,99699.87
2023-04-13T17:12:49.647Z,99706.17
2023-04-13T17:15:18.421Z,99710.06
2023-04-13T17:17:45.900Z,99711.67
2023-04-13T17:20:16.925Z,99713.59
2023-04-13T17:22:44.670Z,99715.56
2023-04-13T17:25:18.830Z,99720.16
2023-04-13T17:27:46.872Z,99719.26
2023-04-13T17:30:14.099Z,99723.95
2023-04-13T17:32:57.107Z,99725.02
2023-04-13T17:35:23.980Z,99724.46
2023-04-13T17:37:51.006Z,99724.86
2023-04-13T17:40:19.922Z,99728.58
2023-04-13T17:42:47.430Z,99731.42
2023-04-13T17:45:17.881Z,99735.55
2023-04-13T17:47:48.849Z,99735.44
2023-04-13T17:50:17.831Z,99736.57
2023-04-13T17:52:44.681Z,99734.38
2023-04-13T17:55:15.537Z,99734.70
2023-04-13T17:57:43.158Z,99733.98
2023-04-13T18:00:11.471Z,99738.67
2023-04-13T18:02:58.426Z,99738.81
2023-04-13T18:05:27.292Z,99738.95
2023-04-13T18:07:54.167Z,99737.21
2023-04-13T18:10:21.070Z,99736.63
2023-04-13T18:12:53.113Z,99738.23
2023-04-13T18:15:21.298Z,99742.25
2023-04-13T18:17:48.166Z,99739.66
2023-04-13T18:20:15.184Z,99740.02
2023-04-13T18:22:42.743Z,99741.58
2023-04-13T18:25:09.895Z,99742.16
2023-04-13T18:27:36.881Z,99745.80
2023-04-13T18:30:08.319Z,99748.21
2023-04-13T18:32:36.903Z,99755.77
2023-04-13T18:35:04.197Z,99751.33
2023-04-13T18:37:31.540Z,99753.11
2023-04-13T18:39:58.695Z,99751.94
2023-04-13T18:42:25.755Z,99753.31
2023-04-13T18:44:56.316Z,99756.11
2023-04-13T18:47:25.133Z,99753.25
2023-04-13T18:49:51.944Z,99751.80
2023-04-13T18:52:19.077Z,99753.70
2023-04-13T18:54:48.109Z,99752.44
2023-04-13T18:57:15.006Z,99753.88
2023-04-13T18:59:44.614Z,99755.38
2023-04-13T19:02:41.758Z,99752.17
2023-04-13T19:05:11.582Z,99746.05
2023-04-13T19:07:56.721Z,99744.71
2023-04-13T19:10:24.717Z,99744.61
2023-04-13T19:12:52.264Z,99747.66
2023-04-13T19:15:24.576Z,99747.33
2023-04-13T19:17:52.906Z,99750.52
2023-04-13T19:20:21.518Z,99748.75
2023-04-13T19:22:48.558Z,99754.09
2023-04-13T19:25:17.585Z,99753.91
2023-04-13T19:27:47.112Z,99755.44
2023-04-13T19:30:15.350Z,99756.70
2023-04-13T19:32:44.540Z,99757.61
2023-04-13T19:35:12.115Z,99759.74
2023-04-13T19:37:39.097Z,99764.09
2023-04-13T19:40:12.551Z,99764.66
2023-04-13T19:42:42.182Z,99765.84
2023-04-13T19:45:09.172Z,99766.60
2023-04-13T19:47:39.072Z,99770.64
2023-04-13T19:50:09.317Z,99773.70
2023-04-13T19:52:36.615Z,99772.02
2023-04-13T19:55:03.642Z,99772.59
2023-04-13T19:57:31.232Z,99772.31
2023-04-13T19:59:57.994Z,99774.27
2023-04-13T20:02:25.070Z,99775.17
2023-04-13T20:04:53.337Z,99775.91
2023-04-13T20:07:20.171Z,99779.75
2023-04-13T20:09:46.967Z,99778.33
2023-04-13T20:12:21.221Z,99780.63
2023-04-13T20:14:48.817Z,99780.23
2023-04-13T20:17:15.816Z,99778.13
2023-04-13T20:19:44.399Z,99777.64
2023-04-13T20:22:13.018Z,99779.56
2023-04-13T20:24:39.888Z,99782.09
2023-04-13T20:27:09.417Z,99782.01
2023-04-13T20:29:36.908Z,99782.96
2023-04-13T20:32:07.941Z,99778.05
2023-04-13T20:34:37.198Z,99777.95
2023-04-13T20:37:09.121Z,99777.98
2023-04-13T20:39:49.473Z,99779.54
2023-04-13T20:42:20.598Z,99780.50
2023-04-13T20:44:56.700Z,99780.53
2023-04-13T20:47:27.876Z,99779.50
2023-04-13T20:49:56.823Z,99779.04
2023-04-13T20:52:23.851Z,99781.91
2023-04-13T20:54:50.881Z,99784.17
2023-04-13T20:57:19.297Z,99781.94
2023-04-13T20:59:47.449Z,99783.73
2023-04-13T21:02:15.146Z,99781.61
2023-04-13T21:04:43.245Z,99782.13
2023-04-13T21:07:10.968Z,99784.81
2023-04-13T21:09:38.891Z,99782.38
2023-04-13T21:12:06.681Z,99785.23
2023-04-13T21:14:33.524Z,99781.48
2023-04-13T21:17:00.716Z,99774.96
2023-04-13T21:19:27.659Z,99778.40
2023-04-13T21:21:56.833Z,99777.21
2023-04-13T21:24:24.791Z,99778.95
2023-04-13T21:26:52.351Z,99784.39
2023-04-13T21:29:19.652Z,99784.10
2023-04-13T21:31:47.227Z,99780.64
2023-04-13T21:34:15.463Z,99785.85
2023-04-13T21:39:15.416Z,99790.65
2023-04-13T21:41:42.227Z,99791.06
2023-04-13T21:44:19.128Z,99792.15
2023-04-13T21:46:56.083Z,99791.84
2023-04-13T21:49:22.986Z,99792.90
2023-04-13T21:51:50.114Z,99792.95
2023-04-13T21:54:17.064Z,99791.04
2023-04-13T21:56:43.809Z,99787.14
2023-04-13T21:59:10.849Z,99784.94
2023-04-13T22:01:38.111Z,99786.27
2023-04-13T22:04:05.834Z,99786.02
2023-04-13T22:06:32.894Z,99787.67
2023-04-13T22:09:01.495Z,99787.55
2023-04-13T22:11:28.939Z,99785.56
2023-04-13T22:13:55.791Z,99787.02
2023-04-13T22:16:22.881Z,99792.41
2023-04-13T22:18:51.532Z,99788.30
2023-04-13T22:21:18.373Z,99790.63
2023-04-13T22:23:47.652Z,99791.40
2023-04-13T22:26:14.505Z,99786.77
2023-04-13T22:28:41.272Z,99786.66
2023-04-13T22:31:11.638Z,99787.70
2023-04-13T22:33:39.921Z,99786.48
2023-04-13T22:36:16.017Z,99785.38
2023-04-13T22:38:47.356Z,99786.56
2023-04-13T22:41:15.128Z,99787.79
2023-04-13T22:43:42.434Z,99788.27
2023-04-13T22:46:10.206Z,99787.09
2023-04-13T22:48:37.704Z,99788.96
2023-04-13T22:51:04.712Z,99787.75
2023-04-13T22:53:31.775Z,99789.30
2023-04-13T22:56:00.036Z,99787.67
2023-04-13T22:58:27.561Z,99791.18
2023-04-13T23:00:55.140Z,99792.48
2023-04-13T23:03:23.919Z,99795.50
2023-04-13T23:05:52.281Z,99795.20
2023-04-13T23:08:19.089Z,99802.19
2023-04-13T23:10:46.059Z,99799.09
2023-04-13T23:13:13.041Z,99800.90
2023-04-13T23:15:40.473Z,99802.54
2023-04-13T23:18:08.044Z,99801.94
2023-04-13T23:20:35.369Z,99801.92
2023-04-13T23:23:02.325Z,99807.09
2023-04-13T23:25:29.725Z,99809.00
2023-04-13T23:27:56.657Z,99807.51
2023-04-13T23:30:23.497Z,99809.45
2023-04-13T23:32:51.016Z,99810.45
2023-04-13T23:35:18.162Z,99812.30
2023-04-13T23:37:45.589Z,99812.50
2023-04-13T23:40:13.277Z,99819.02
2023-04-13T23:42:40.601Z,99820.47
2023-04-13T23:45:11.829Z,99817.73
2023-04-13T23:47:39.335Z,99816.17
2023-04-13T23:50:07.006Z,99814.77
2023-04-13T23:52:33.937Z,99810.02
2023-04-13T23:55:01.015Z,99811.04
2023-04-13T23:57:33.063Z,99809.64
